createdAt,value
2022-12-15T00:00:18.645Z,-2.48
2022-12-15T00:05:39.066Z,-2.51
2022-12-15T00:10:59.583Z,-2.45
2022-12-15T00:16:20.393Z,-2.39
2022-12-15T00:21:41.348Z,-2.28
2022-12-15T00:27:01.894Z,-2.30
2022-12-15T00:32:22.821Z,-2.23
2022-12-15T00:37:43.210Z,-2.21
2022-12-15T00:42:45.265Z,-2.21
2022-12-15T00:47:51.715Z,-2.17
2022-12-15T00:53:12.565Z,-2.20
2022-12-15T00:58:33.067Z,-2.14
2022-12-15T01:03:53.989Z,-2.10
2022-12-15T01:09:15.242Z,-2.12
2022-12-15T01:14:35.705Z,-2.02
2022-12-15T01:19:56.119Z,-2.04
2022-12-15T01:24:58.218Z,-2.09
2022-12-15T01:30:00.302Z,-2.13
2022-12-15T01:35:03.716Z,-2.11
2022-12-15T01:40:26.389Z,-2.12
2022-12-15T01:45:31.423Z,-2.27
2022-12-15T01:50:45.149Z,-2.45
2022-12-15T01:55:49.787Z,-2.60
2022-12-15T02:00:52.092Z,-2.74
2022-12-15T02:05:55.555Z,-2.82
2022-12-15T02:11:19.385Z,-2.88
2022-12-15T02:16:29.199Z,-2.97
2022-12-15T02:21:46.355Z,-2.88
2022-12-15T02:27:25.423Z,-2.81
2022-12-15T02:33:08.875Z,-2.84
2022-12-15T02:38:10.972Z,-2.99
2022-12-15T02:43:13.031Z,-2.96
2022-12-15T02:48:33.721Z,-2.92
2022-12-15T02:54:06.778Z,-2.92
2022-12-15T02:59:15.062Z,-2.91
2022-12-15T03:04:18.282Z,-2.83
2022-12-15T03:09:20.327Z,-2.73
2022-12-15T03:14:22.770Z,-2.63
2022-12-15T03:19:26.049Z,-2.57
2022-12-15T03:24:28.080Z,-2.45
2022-12-15T03:29:30.184Z,-2.47
2022-12-15T03:34:32.273Z,-2.39
2022-12-15T03:39:34.347Z,-2.47
2022-12-15T03:44:36.380Z,-2.48
2022-12-15T03:49:38.401Z,-2.27
2022-12-15T03:54:40.449Z,-2.20
2022-12-15T03:59:42.649Z,-2.24
2022-12-15T04:04:44.881Z,-2.16
2022-12-15T04:09:46.992Z,-2.11
2022-12-15T04:14:49.599Z,-2.15
2022-12-15T04:20:09.903Z,-2.16
2022-12-15T04:25:36.006Z,-2.17
2022-12-15T04:30:58.337Z,-2.16
2022-12-15T04:36:19.346Z,-2.19
2022-12-15T04:41:41.760Z,-2.13
2022-12-15T04:47:02.125Z,-2.14
2022-12-15T04:52:23.009Z,-2.08
2022-12-15T04:57:43.597Z,-2.12
2022-12-15T05:03:04.089Z,-2.08
2022-12-15T05:08:24.633Z,-1.96
2022-12-15T05:13:45.244Z,-2.06
2022-12-15T05:19:05.825Z,-2.05
2022-12-15T05:24:27.582Z,-2.08
2022-12-15T05:29:48.148Z,-2.15
2022-12-15T05:34:50.203Z,-2.26
2022-12-15T05:39:52.219Z,-2.36
2022-12-15T05:44:54.305Z,-2.46
2022-12-15T05:49:56.508Z,-2.57
2022-12-15T05:54:58.624Z,-2.57
2022-12-15T06:00:00.738Z,-2.42
2022-12-15T06:05:02.851Z,-2.34
2022-12-15T06:10:06.158Z,-2.31
2022-12-15T06:15:08.718Z,-2.06
2022-12-15T06:20:11.390Z,-1.46
2022-12-15T06:25:13.525Z,-0.67
2022-12-15T06:30:16.306Z,-0.04
2022-12-15T06:35:18.448Z,0.66
2022-12-15T06:40:20.517Z,1.26
2022-12-15T06:45:22.579Z,1.62
2022-12-15T06:50:24.595Z,2.02
2022-12-15T06:55:26.646Z,2.47
2022-12-15T07:00:28.916Z,2.84
2022-12-15T07:05:31.192Z,3.20
2022-12-15T07:10:33.518Z,3.65
2022-12-15T07:15:35.678Z,3.34
2022-12-15T07:20:38.373Z,2.36
2022-12-15T07:25:40.573Z,0.98
2022-12-15T07:30:42.725Z,0.19
2022-12-15T07:35:53.747Z,-0.18
2022-12-15T07:40:56.052Z,-0.59
2022-12-15T07:45:58.645Z,-0.85
2022-12-15T07:51:10.902Z,-1.01
2022-12-15T07:56:15.554Z,-1.38
2022-12-15T08:01:19.144Z,-1.54
2022-12-15T08:06:21.357Z,-1.91
2022-12-15T08:11:25.034Z,-2.18
2022-12-15T08:16:28.455Z,-2.33
2022-12-15T08:21:31.814Z,-2.37
2022-12-15T08:26:34.772Z,-2.54
2022-12-15T08:31:36.971Z,-2.78
2022-12-15T08:36:39.159Z,-2.89
2022-12-15T08:41:41.730Z,-2.85
2022-12-15T08:46:43.915Z,-3.04
2022-12-15T08:51:47.156Z,-2.95
2022-12-15T08:56:52.459Z,-2.95
2022-12-15T09:01:54.776Z,-3.09
2022-12-15T09:06:57.124Z,-3.01
2022-12-15T09:11:59.357Z,-2.97
2022-12-15T09:17:01.554Z,-3.04
2022-12-15T09:22:05.366Z,-3.20
2022-12-15T09:27:07.639Z,-3.16
2022-12-15T09:32:14.056Z,-2.83
2022-12-15T09:37:16.748Z,-2.62
2022-12-15T09:42:28.050Z,-2.31
2022-12-15T09:47:58.083Z,-2.14
2022-12-15T09:53:01.868Z,-2.09
2022-12-15T09:58:24.706Z,-2.26
2022-12-15T10:03:36.498Z,-2.28
2022-12-15T10:08:47.074Z,-2.20
2022-12-15T10:14:13.453Z,-2.10
2022-12-15T10:19:27.103Z,-2.14
2022-12-15T10:25:08.061Z,-1.98
2022-12-15T10:30:02.454Z,-1.94
2022-12-15T10:35:16.394Z,-1.97
2022-12-15T10:40:21.056Z,-2.02
2022-12-15T10:45:35.663Z,-2.10
2022-12-15T10:50:37.816Z,-2.14
2022-12-15T10:55:43.811Z,-2.34
2022-12-15T11:01:24.497Z,-2.03
2022-12-15T11:06:32.680Z,-2.14
2022-12-15T11:12:03.844Z,-2.34
2022-12-15T11:17:07.383Z,-2.31
2022-12-15T11:22:18.839Z,-2.51
2022-12-15T11:27:36.591Z,-2.53
2022-12-15T11:32:47.275Z,-2.79
2022-12-15T11:38:01.693Z,-2.84
2022-12-15T11:43:28.910Z,-2.90
2022-12-15T11:48:43.660Z,-3.04
2022-12-15T11:54:10.478Z,-3.21
2022-12-15T11:59:33.799Z,-3.10
2022-12-15T12:05:04.615Z,-3.07
2022-12-15T12:10:34.973Z,-3.07
2022-12-15T12:15:45.647Z,-3.09
2022-12-15T12:21:11.246Z,-3.37
2022-12-15T12:26:35.451Z,-3.25
2022-12-15T12:32:04.946Z,-3.33
2022-12-15T12:37:39.804Z,-3.35
2022-12-15T12:42:51.635Z,-3.69
2022-12-15T12:47:57.977Z,-3.55
2022-12-15T12:53:04.445Z,-3.58
2022-12-15T12:58:31.241Z,-3.66
2022-12-15T13:03:33.571Z,-3.90
2022-12-15T13:08:55.937Z,-3.72
2022-12-15T13:13:58.067Z,-3.79
2022-12-15T13:19:07.034Z,-3.71
2022-12-15T13:24:46.345Z,-3.63
2022-12-15T13:30:16.172Z,-3.63
2022-12-15T13:35:31.366Z,-3.82
2022-12-15T13:40:36.327Z,-3.81
2022-12-15T13:45:38.465Z,-3.89
2022-12-15T13:51:03.688Z,-3.90
2022-12-15T13:56:11.659Z,-3.85
2022-12-15T14:01:21.101Z,-3.81
2022-12-15T14:06:23.343Z,-3.77
2022-12-15T14:11:51.847Z,-3.83
2022-12-15T14:17:08.862Z,-3.79
2022-12-15T14:22:29.476Z,-3.81
2022-12-15T14:27:34.012Z,-3.83
2022-12-15T14:32:36.315Z,-3.96
2022-12-15T14:37:38.558Z,-3.86
2022-12-15T14:42:41.740Z,-3.79
2022-12-15T14:48:13.326Z,-3.86
2022-12-15T14:53:17.991Z,-3.67
2022-12-15T14:58:26.817Z,-3.89
2022-12-15T15:03:39.166Z,-4.12
2022-12-15T15:08:52.831Z,-4.01
2022-12-15T15:13:58.297Z,-3.93
2022-12-15T15:19:03.101Z,-4.23
2022-12-15T15:24:25.573Z,-4.24
2022-12-15T15:29:32.798Z,-4.42
2022-12-15T15:34:34.831Z,-4.33
2022-12-15T15:39:37.004Z,-4.43
2022-12-15T15:44:40.377Z,-4.52
2022-12-15T15:49:42.513Z,-4.72
2022-12-15T15:54:45.951Z,-4.82
2022-12-15T15:59:47.937Z,-4.96
2022-12-15T16:04:49.955Z,-5.00
2022-12-15T16:09:53.838Z,-5.01
2022-12-15T16:14:56.597Z,-4.92
2022-12-15T16:19:58.628Z,-5.14
2022-12-15T16:25:00.804Z,-5.04
2022-12-15T16:30:15.898Z,-5.02
2022-12-15T16:35:18.567Z,-5.08
2022-12-15T16:40:24.009Z,-5.11
2022-12-15T16:45:29.076Z,-5.06
2022-12-15T16:50:36.000Z,-5.13
2022-12-15T16:55:40.132Z,-5.08
2022-12-15T17:00:44.580Z,-5.10
2022-12-15T17:05:50.811Z,-5.54
2022-12-15T17:10:53.143Z,-5.30
2022-12-15T17:15:55.204Z,-5.13
2022-12-15T17:21:08.320Z,-5.03
2022-12-15T17:26:28.584Z,-5.13
2022-12-15T17:31:35.678Z,-4.88
2022-12-15T17:36:38.287Z,-5.14
2022-12-15T17:41:59.337Z,-5.00
2022-12-15T17:47:03.125Z,-5.27
2022-12-15T17:52:19.215Z,-5.25
2022-12-15T17:57:21.527Z,-5.16
2022-12-15T18:02:23.649Z,-5.19
2022-12-15T18:07:25.742Z,-5.15
2022-12-15T18:12:29.161Z,-5.12
2022-12-15T18:17:31.472Z,-5.29
2022-12-15T18:22:33.465Z,-5.09
2022-12-15T18:27:35.454Z,-5.12
2022-12-15T18:32:41.399Z,-4.95
2022-12-15T18:37:43.540Z,-4.95
2022-12-15T18:42:47.103Z,-4.94
2022-12-15T18:47:50.460Z,-5.01
2022-12-15T18:53:02.053Z,-4.72
2022-12-15T18:58:04.266Z,-4.86
2022-12-15T19:03:06.583Z,-4.52
2022-12-15T19:08:10.339Z,-4.49
2022-12-15T19:13:17.342Z,-4.20
2022-12-15T19:18:40.853Z,-4.20
2022-12-15T19:23:42.899Z,-4.05
2022-12-15T19:28:45.024Z,-4.01
2022-12-15T19:33:47.173Z,-3.94
2022-12-15T19:38:50.858Z,-3.84
2022-12-15T19:43:52.959Z,-3.73
2022-12-15T19:48:55.041Z,-3.92
2022-12-15T19:53:57.304Z,-3.88
2022-12-15T19:58:59.832Z,-3.79
2022-12-15T20:04:01.843Z,-3.85
2022-12-15T20:09:04.181Z,-3.67
2022-12-15T20:14:12.775Z,-3.50
2022-12-15T20:19:14.824Z,-3.68
2022-12-15T20:24:19.526Z,-3.42
2022-12-15T20:29:28.519Z,-3.22
2022-12-15T20:34:30.558Z,-3.35
2022-12-15T20:39:32.875Z,-3.21
2022-12-15T20:44:35.044Z,-3.07
2022-12-15T20:49:37.173Z,-3.08
2022-12-15T20:54:39.155Z,-3.06
2022-12-15T20:59:41.348Z,-3.01
2022-12-15T21:04:43.587Z,-3.03
2022-12-15T21:09:45.810Z,-2.86
2022-12-15T21:14:48.982Z,-2.90
2022-12-15T21:19:51.143Z,-2.84
2022-12-15T21:24:56.533Z,-2.86
2022-12-15T21:29:58.799Z,-2.88
2022-12-15T21:35:00.793Z,-2.61
2022-12-15T21:40:05.117Z,-2.73
2022-12-15T21:45:19.597Z,-2.56
2022-12-15T21:50:21.713Z,-2.84
2022-12-15T21:55:27.478Z,-2.58
2022-12-15T22:00:29.572Z,-2.50
2022-12-15T22:05:32.591Z,-2.78
2022-12-15T22:10:34.658Z,-2.43
2022-12-15T22:15:36.853Z,-2.46
2022-12-15T22:20:39.473Z,-2.47
2022-12-15T22:25:42.141Z,-2.28
2022-12-15T22:30:44.285Z,-2.32
2022-12-15T22:35:46.447Z,-2.28
2022-12-15T22:40:54.150Z,-2.17
2022-12-15T22:45:57.962Z,-2.18
2022-12-15T22:51:00.775Z,-2.11
2022-12-15T22:56:30.805Z,-2.05
2022-12-15T23:01:32.911Z,-2.03
2022-12-15T23:06:34.988Z,-2.02
2022-12-15T23:11:37.145Z,-1.93
2022-12-15T23:16:39.899Z,-1.96
2022-12-15T23:21:41.886Z,-1.96
2022-12-15T23:26:44.204Z,-2.11
2022-12-15T23:31:46.247Z,-1.82
2022-12-15T23:36:48.341Z,-1.99
2022-12-15T23:41:50.304Z,-1.80
2022-12-15T23:46:52.552Z,-1.83
2022-12-15T23:51:55.141Z,-1.82
2022-12-15T23:56:57.185Z,-1.68
